ADDS METAR Data INFO
IDs: Format: Raw Decoded Include TAF

Data at: 0752 UTC 24 May 2018

KJSO 240735Z AUTO 00000KT 10SM CLR 20/18 A3009 RMK AO2 T02020183
KJSO 240715Z AUTO 00000KT 10SM CLR 20/18 A3009 RMK AO2 T02050182
KJSO 240655Z AUTO 17004KT 10SM CLR 20/18 A3009 RMK AO2 T02030182
KJSO 240635Z AUTO 00000KT 10SM CLR 21/18 A3010 RMK AO2 T02100182
KJSO 240615Z AUTO 00000KT 10SM CLR 21/18 A3010 RMK AO2 T02080183
KJSO 240555Z AUTO 17003KT 10SM CLR 21/18 A3010 RMK AO2 T02120186
KJSO 240535Z AUTO 16003KT 10SM CLR 21/18 A3010 RMK AO2 T02150188
KJSO 240515Z AUTO 00000KT 10SM CLR 21/18 A3011 RMK AO2 T02100191
KJSO 240455Z AUTO 00000KT 10SM CLR 21/19 A3011 RMK AO2 T02150192
KJSO 240435Z AUTO 00000KT 10SM CLR 22/19 A3011 RMK AO2 T02200195
KJSO 240415Z AUTO 00000KT 10SM CLR 22/19 A3011 RMK AO2 T02250196
KJSO 240355Z AUTO 17003KT 10SM CLR 22/20 A3010 RMK AO2 T02280197
KJSO 240335Z AUTO 17003KT 10SM CLR 22/19 A3008 RMK AO2 T02300196
KJSO 240315Z AUTO 00000KT 10SM CLR 23/19 A3007 RMK AO2 T02320195
KJSO 240255Z AUTO 15003KT 10SM CLR 23/19 A3006 RMK AO2 T02380194
KJSO 240235Z AUTO 16003KT 10SM CLR 24/19 A3005 RMK AO2 LTG DSNT NE T02420193
KJSO 240215Z AUTO 16003KT 10SM CLR 24/19 A3005 RMK AO2 T02430195
KJSO 240155Z AUTO 14003KT 10SM CLR 23/19 A3005 RMK AO2 T02400195
KJSO 240135Z AUTO 15003KT 10SM CLR 24/19 A3005 RMK AO2 T02450196
KJSO 240115Z AUTO 00000KT 10SM CLR 25/19 A3005 RMK AO2 T02560196
KJSO 240055Z AUTO 00000KT 10SM CLR 27/18 A3004 RMK AO2 T02720187
KJSO 240035Z AUTO 19003KT 10SM CLR 27/18 A3003 RMK AO2 LTG DSNT N T02780185
KJSO 240015Z AUTO 17005KT 10SM CLR 28/18 A3003 RMK AO2 LTG DSNT N T02810181
KJSO 232355Z AUTO 17005KT 10SM CLR 28/18 A3003 RMK AO2 LTG DSNT N AND NE T02820186
KJSO 232335Z AUTO 19005KT 10SM CLR 28/18 A3002 RMK AO2 LTG DSNT N T02840186
KJSO 232315Z AUTO 17010KT 10SM CLR 28/18 A3003 RMK AO2 LTG DSNT NE T02870187
KJSO 232255Z AUTO 18009G15KT 10SM CLR 28/18 A3004 RMK AO2 T02880188
KJSO 232235Z AUTO 16010G15KT 10SM CLR 29/19 A3004 RMK AO2 T02930193
KJSO 232215Z AUTO 18012G15KT 10SM SCT090 SCT120 30/18 A3003 RMK AO2 LTG DSNT NE T03040186
KJSO 232155Z AUTO 18010KT 10SM SCT060 SCT070 BKN090 31/18 A3004 RMK AO2 T03170185
KJSO 232135Z AUTO 17008KT 10SM SCT060 SCT070 SCT090 32/17 A3004 RMK AO2 T03240176
KJSO 232115Z AUTO 18008KT 150V220 10SM CLR 32/18 A3004 RMK AO2 T03220181
KJSO 232055Z AUTO 00000KT 10SM CLR 31/17 A3004 RMK AO2 LTG DSNT S T03180170
KJSO 232035Z AUTO 00000KT 10SM SCT050 31/16 A3005 RMK AO2 T03150161
KJSO 232015Z AUTO 13004KT 10SM SCT050 30/17 A3005 RMK AO2 LTG DSNT N T03000180
KJSO 231955Z AUTO 13004KT 10SM SCT048 SCT065 30/18 A3006 RMK AO2 T03070183
KJSO 231935Z AUTO 12003KT 10SM SCT048 BKN050 BKN065 30/19 A3006 RMK AO2 T03050191
KJSO 231915Z AUTO 00000KT 10SM SCT047 SCT050 BKN090 30/19 A3007 RMK AO2 T03040193
KJSO 231855Z AUTO 11003KT 10SM SCT047 BKN050 BKN075 29/19 A3008 RMK AO2 LTG DSNT SE T02960192
KJSO 231835Z AUTO 07003KT 10SM SCT041 SCT055 SCT080 30/19 A3008 RMK AO2 LTG DSNT N T03030195
KJSO 231815Z AUTO 00000KT 10SM SCT041 BKN050 BKN070 30/19 A3009 RMK AO2 T03020197
KJSO 231755Z AUTO 00000KT 10SM SCT041 BKN048 OVC070 29/19 A3009 RMK AO2 T02920195
KJSO 231735Z AUTO 00000KT 10SM SCT039 BKN048 BKN050 29/20 A3010 RMK AO2 T02940198
KJSO 231715Z AUTO 14004KT 10SM BKN039 30/20 A3010 RMK AO2 LTG DSNT SE T03030200
KJSO 231655Z AUTO 16003KT 10SM BKN039 29/20 A3011 RMK AO2 T02950197
KJSO 231635Z AUTO 07003KT 10SM SCT033 28/20 A3011 RMK AO2 T02900200
KJSO 231615Z AUTO 10003KT 10SM SCT033 29/20 A3011 RMK AO2 T02920200
KJSO 231555Z AUTO 14003KT 10SM SCT030 28/20 A3011 RMK AO2 T02820198
KJSO 231535Z AUTO 13004KT 10SM SCT030 SCT036 28/19 A3011 RMK AO2 T02850195
KJSO 231515Z AUTO 00000KT 10SM SCT020 27/20 A3011 RMK AO2 T02710205
KJSO 231455Z AUTO 00000KT 10SM SCT017 27/21 A3011 RMK AO2 T02700210
KJSO 231435Z AUTO 25003KT 10SM CLR 26/22 A3011 RMK AO2 T02600220
KJSO 231415Z AUTO 00000KT 10SM CLR 25/21 A3011 RMK AO2 T02530219
KJSO 231355Z AUTO 00000KT 10SM CLR 25/22 A3010 RMK AO2 T02500220
KJSO 231335Z AUTO 21003KT 10SM CLR 25/21 A3010 RMK AO2 T02480219
KJSO 231315Z AUTO 00000KT 10SM CLR 24/22 A3009 RMK AO2 T02430220
KJSO 231255Z AUTO 00000KT 10SM CLR 23/21 A3008 RMK AO2 T02360219
KJSO 231235Z AUTO 00000KT 7SM CLR 22/21 A3008 RMK AO2 T02300215
KJSO 231215Z AUTO 00000KT 10SM CLR 22/21 A3007 RMK AO2 T02200212
KJSO 231155Z AUTO 21003KT 10SM CLR 21/21 A3006 RMK AO2 T02150210
KJSO 231135Z AUTO 00000KT 10SM CLR 21/21 A3005 RMK AO2 T02130208
KJSO 231115Z AUTO 00000KT 10SM CLR 21/20 A3004 RMK AO2 T02110206
KJSO 231055Z AUTO 21003KT 10SM CLR 21/20 A3004 RMK AO2 T02120206
KJSO 231035Z AUTO 20003KT 10SM CLR 21/20 A3003 RMK AO2 T02150206
KJSO 231015Z AUTO 20003KT 10SM CLR 21/20 A3003 RMK AO2 T02160207
KJSO 230955Z AUTO 18004KT 10SM CLR 21/20 A3002 RMK AO2 T02150206
KJSO 230935Z AUTO 18004KT 10SM CLR 21/20 A3002 RMK AO2 T02150205
KJSO 230915Z AUTO 18003KT 10SM CLR 21/20 A3002 RMK AO2 T02120203
KJSO 230855Z AUTO 19004KT 10SM CLR 21/20 A3002 RMK AO2 T02150203
KJSO 230835Z AUTO 17005KT 10SM CLR 21/20 A3002 RMK AO2 T02150202
KJSO 230815Z AUTO 17005KT 10SM CLR 21/20 A3002 RMK AO2 T02180201
KJSO 230755Z AUTO 18004KT 10SM CLR 22/20 A3002 RMK AO2 T02210201
KJSO 230735Z AUTO 18004KT 10SM CLR 22/20 A3002 RMK AO2 T02210200
KJSO 230715Z AUTO 18003KT 10SM CLR 22/20 A3003 RMK AO2 T02230198
KJSO 230655Z AUTO 16003KT 10SM CLR 22/19 A3003 RMK AO2 T02260197
KJSO 230635Z AUTO 13003KT 10SM CLR 22/19 A3003 RMK AO2 T02300195
KJSO 230615Z AUTO 16003KT 10SM CLR 23/19 A3003 RMK AO2 T02310193
KJSO 230555Z AUTO 13003KT 10SM CLR 23/18 A3003 RMK AO2 T02380190
KJSO 230535Z AUTO 13004KT 10SM CLR 23/19 A3003 RMK AO2 T02390192
KJSO 230515Z AUTO 13004KT 10SM CLR 22/20 A3003 RMK AO2 T02290199
KJSO 230455Z AUTO 15004KT 10SM CLR 22/20 A3004 RMK AO2 T02280203
KJSO 230435Z AUTO 15004KT 10SM CLR 23/20 A3004 RMK AO2 LTG DSNT E T02320204
KJSO 230415Z AUTO 13004KT 10SM SCT045 SCT060 23/20 A3004 RMK AO2 T02350205
KJSO 230355Z AUTO 00000KT 10SM SCT045 23/20 A3004 RMK AO2 LTG DSNT E T02360206
KJSO 230335Z AUTO 09004KT 10SM CLR 23/21 A3003 RMK AO2 T02360209
KJSO 230315Z AUTO 09004KT 10SM CLR 23/21 A3003 RMK AO2 LTG DSNT SE T02400210
KJSO 230255Z AUTO 09004KT 10SM CLR 23/21 A3002 RMK AO2 LTG DSNT S T02410210
KJSO 230235Z AUTO 07004KT 10SM CLR 24/20 A3002 RMK AO2 LTG DSNT SE AND S T02450207
KJSO 230215Z AUTO 08003KT 10SM CLR 24/20 A3001 RMK AO2 LTG DSNT SE AND S T02430205
KJSO 230155Z AUTO 00000KT 10SM CLR 24/20 A3000 RMK AO2 LTG DSNT SE T02470206
KJSO 230135Z AUTO 07003KT 10SM CLR 25/20 A3000 RMK AO2 LTG DSNT S T02500204
KJSO 230115Z AUTO 05003KT 10SM CLR 25/21 A3000 RMK AO2 T02500209
KJSO 230055Z AUTO 04004KT 10SM CLR 25/20 A2999 RMK AO2 T02560206
KJSO 230035Z AUTO 06004KT 10SM CLR 26/20 A2998 RMK AO2 T02640205
KJSO 230015Z AUTO 07005KT 10SM CLR 27/20 A2998 RMK AO2 T02720203
KJSO 222355Z AUTO 09005KT 10SM CLR 27/20 A2998 RMK AO2 T02770198
KJSO 222335Z AUTO 08004KT 10SM SCT045 SCT050 29/20 A2998 RMK AO2 T02920199
KJSO 222315Z AUTO 06004KT 10SM BKN045 BKN050 30/19 A2998 RMK AO2 LTG DSNT N T03000193
KJSO 222255Z AUTO 00000KT 10SM SCT047 30/18 A2998 RMK AO2 LTG DSNT NE T03000184
KJSO 222235Z AUTO 00000KT 10SM CLR 30/18 A2997 RMK AO2 LTG DSNT NE T03040185
KJSO 222215Z AUTO 16003KT 10SM CLR 30/18 A2998 RMK AO2 LTG DSNT N T03050186
KJSO 222155Z AUTO 00000KT 10SM CLR 30/18 A2997 RMK AO2 LTG DSNT E T03050186
KJSO 222135Z AUTO 20003KT 10SM CLR 30/18 A2998 RMK AO2 LTG DSNT NE AND E T03000183
KJSO 222115Z AUTO 16003KT 10SM CLR 30/18 A2999 RMK AO2 LTG DSNT SW T03030184
KJSO 222015Z AUTO 00000KT 10SM CLR 28/18 A3001 RMK AO2 LTG DSNT NE AND NW T02900182
KJSO 221955Z AUTO 25005KT 5SM VCTS HZ CLR 28/18 A3002 RMK AO2 LTG DSNT NW THRU E T02850182